Terminal Aerodrome Forecast
Issued by NWS

Home | Current Version | Previous Version | Text Only | Print | Product List | Glossary On
Versions: 1 2 3 4 5 6 7 8 9 10 11 12 13 14 15 16 17 18 19 20 21 22 23 24 25 26
521
FTUS45 KPSR 111437 AAA
TAFPHX
TAF AMD
KPHX 111437Z 1115/1212 10005KT P6SM FEW250
      TEMPO 1115/1117 12008G16KT
     FM112200 26005KT P6SM FEW250
     FM120600 10005KT P6SM SKC=

USA.gov is the U.S. government's official web portal to all federal, state and local government web resources and services.